sensor_id;sensor_type;location;lat;lon;timestamp;temperature;humidity
68257;DHT22;55069;51.568;4.656;2022-12-24T00:01:20;9.73;92.16
68257;DHT22;55069;51.568;4.656;2022-12-24T00:03:46;9.67;92.45
68257;DHT22;55069;51.568;4.656;2022-12-24T00:06:17;9.69;92.34
68257;DHT22;55069;51.568;4.656;2022-12-24T00:08:43;9.62;92.56
68257;DHT22;55069;51.568;4.656;2022-12-24T00:11:08;9.60;92.70
68257;DHT22;55069;51.568;4.656;2022-12-24T00:13:34;9.52;92.86
68257;DHT22;55069;51.568;4.656;2022-12-24T00:16:00;9.53;92.92
68257;DHT22;55069;51.568;4.656;2022-12-24T00:18:26;9.53;92.72
68257;DHT22;55069;51.568;4.656;2022-12-24T00:20:52;9.48;92.85
68257;DHT22;55069;51.568;4.656;2022-12-24T00:23:17;9.40;92.97
68257;DHT22;55069;51.568;4.656;2022-12-24T00:25:44;9.43;92.87
68257;DHT22;55069;51.568;4.656;2022-12-24T00:28:09;9.45;92.69
68257;DHT22;55069;51.568;4.656;2022-12-24T00:30:37;9.34;92.97
68257;DHT22;55069;51.568;4.656;2022-12-24T00:33:04;9.31;93.10
68257;DHT22;55069;51.568;4.656;2022-12-24T00:35:36;9.35;93.02
68257;DHT22;55069;51.568;4.656;2022-12-24T00:38:02;9.31;92.74
68257;DHT22;55069;51.568;4.656;2022-12-24T00:40:29;9.38;92.74
68257;DHT22;55069;51.568;4.656;2022-12-24T00:42:55;9.34;92.75
68257;DHT22;55069;51.568;4.656;2022-12-24T00:45:21;9.32;92.58
68257;DHT22;55069;51.568;4.656;2022-12-24T00:47:47;9.25;92.77
68257;DHT22;55069;51.568;4.656;2022-12-24T00:50:12;9.19;92.85
68257;DHT22;55069;51.568;4.656;2022-12-24T00:52:38;9.15;92.87
68257;DHT22;55069;51.568;4.656;2022-12-24T00:55:04;9.18;92.78
68257;DHT22;55069;51.568;4.656;2022-12-24T00:57:29;9.25;92.59
68257;DHT22;55069;51.568;4.656;2022-12-24T00:59:55;9.24;92.37
68257;DHT22;55069;51.568;4.656;2022-12-24T01:02:20;9.19;92.60
68257;DHT22;55069;51.568;4.656;2022-12-24T01:04:46;9.12;92.73
68257;DHT22;55069;51.568;4.656;2022-12-24T01:07:30;9.04;92.86
68257;DHT22;55069;51.568;4.656;2022-12-24T01:09:56;9.04;92.82
68257;DHT22;55069;51.568;4.656;2022-12-24T01:12:21;9.05;92.86
68257;DHT22;55069;51.568;4.656;2022-12-24T01:14:47;9.00;92.94
68257;DHT22;55069;51.568;4.656;2022-12-24T01:17:13;8.91;93.20
68257;DHT22;55069;51.568;4.656;2022-12-24T01:19:38;8.90;93.32
68257;DHT22;55069;51.568;4.656;2022-12-24T01:22:04;8.92;93.46
68257;DHT22;55069;51.568;4.656;2022-12-24T01:24:29;8.97;93.68
68257;DHT22;55069;51.568;4.656;2022-12-24T01:26:55;8.98;93.74
68257;DHT22;55069;51.568;4.656;2022-12-24T01:29:20;9.07;93.82
68257;DHT22;55069;51.568;4.656;2022-12-24T01:31:46;9.11;93.75
68257;DHT22;55069;51.568;4.656;2022-12-24T01:34:11;9.17;93.88
68257;DHT22;55069;51.568;4.656;2022-12-24T01:36:37;9.27;93.70
68257;DHT22;55069;51.568;4.656;2022-12-24T01:39:03;9.32;93.64
68257;DHT22;55069;51.568;4.656;2022-12-24T01:41:30;9.38;93.62
68257;DHT22;55069;51.568;4.656;2022-12-24T01:46:54;9.55;93.33
68257;DHT22;55069;51.568;4.656;2022-12-24T01:49:21;9.66;93.22
68257;DHT22;55069;51.568;4.656;2022-12-24T01:52:03;9.69;93.14
68257;DHT22;55069;51.568;4.656;2022-12-24T01:54:33;9.77;92.93
68257;DHT22;55069;51.568;4.656;2022-12-24T01:57:04;9.75;92.93
68257;DHT22;55069;51.568;4.656;2022-12-24T01:59:31;9.76;92.97
68257;DHT22;55069;51.568;4.656;2022-12-24T02:01:57;9.79;92.98
68257;DHT22;55069;51.568;4.656;2022-12-24T02:04:33;9.67;93.13
68257;DHT22;55069;51.568;4.656;2022-12-24T02:07:01;9.70;93.00
68257;DHT22;55069;51.568;4.656;2022-12-24T02:09:27;9.67;93.15
68257;DHT22;55069;51.568;4.656;2022-12-24T02:11:52;9.62;93.38
68257;DHT22;55069;51.568;4.656;2022-12-24T02:14:18;9.67;93.33
68257;DHT22;55069;51.568;4.656;2022-12-24T02:16:57;9.75;93.37
68257;DHT22;55069;51.568;4.656;2022-12-24T02:19:54;9.79;93.08
68257;DHT22;55069;51.568;4.656;2022-12-24T02:25:21;9.86;92.99
68257;DHT22;55069;51.568;4.656;2022-12-24T02:30:51;9.83;92.84
68257;DHT22;55069;51.568;4.656;2022-12-24T02:36:11;9.87;92.79
68257;DHT22;55069;51.568;4.656;2022-12-24T02:38:48;9.79;93.02
68257;DHT22;55069;51.568;4.656;2022-12-24T02:41:16;9.79;93.12
68257;DHT22;55069;51.568;4.656;2022-12-24T02:43:45;9.84;93.03
68257;DHT22;55069;51.568;4.656;2022-12-24T02:46:23;9.90;92.98
68257;DHT22;55069;51.568;4.656;2022-12-24T02:48:50;9.91;92.86
68257;DHT22;55069;51.568;4.656;2022-12-24T02:51:21;10.05;92.53
68257;DHT22;55069;51.568;4.656;2022-12-24T02:53:47;10.10;92.37
68257;DHT22;55069;51.568;4.656;2022-12-24T02:59:29;10.20;92.08
68257;DHT22;55069;51.568;4.656;2022-12-24T03:05:09;10.17;92.37
68257;DHT22;55069;51.568;4.656;2022-12-24T03:10:23;10.24;92.21
68257;DHT22;55069;51.568;4.656;2022-12-24T03:12:55;10.27;92.16
68257;DHT22;55069;51.568;4.656;2022-12-24T03:15:25;10.34;91.99
68257;DHT22;55069;51.568;4.656;2022-12-24T03:17:53;10.28;92.04
68257;DHT22;55069;51.568;4.656;2022-12-24T03:20:30;10.32;92.13
68257;DHT22;55069;51.568;4.656;2022-12-24T03:22:57;10.32;92.23
68257;DHT22;55069;51.568;4.656;2022-12-24T03:25:24;10.31;92.32
68257;DHT22;55069;51.568;4.656;2022-12-24T03:27:50;10.34;92.38
68257;DHT22;55069;51.568;4.656;2022-12-24T03:30:16;10.31;92.53
68257;DHT22;55069;51.568;4.656;2022-12-24T03:32:42;10.27;92.63
68257;DHT22;55069;51.568;4.656;2022-12-24T03:35:09;10.25;92.84
68257;DHT22;55069;51.568;4.656;2022-12-24T03:37:35;10.35;92.63
68257;DHT22;55069;51.568;4.656;2022-12-24T03:40:02;10.35;92.65
68257;DHT22;55069;51.568;4.656;2022-12-24T03:42:28;10.35;92.61
68257;DHT22;55069;51.568;4.656;2022-12-24T03:44:53;10.38;92.48
68257;DHT22;55069;51.568;4.656;2022-12-24T03:47:19;10.41;92.28
68257;DHT22;55069;51.568;4.656;2022-12-24T03:49:44;10.41;92.20
68257;DHT22;55069;51.568;4.656;2022-12-24T03:52:09;10.40;92.32
68257;DHT22;55069;51.568;4.656;2022-12-24T03:54:35;10.34;92.45
68257;DHT22;55069;51.568;4.656;2022-12-24T03:57:00;10.32;92.47
68257;DHT22;55069;51.568;4.656;2022-12-24T03:59:26;10.34;92.47
68257;DHT22;55069;51.568;4.656;2022-12-24T04:01:52;10.37;92.38
68257;DHT22;55069;51.568;4.656;2022-12-24T04:04:17;10.34;92.23
68257;DHT22;55069;51.568;4.656;2022-12-24T04:06:43;10.35;92.30
68257;DHT22;55069;51.568;4.656;2022-12-24T04:09:08;10.35;92.22
68257;DHT22;55069;51.568;4.656;2022-12-24T04:11:34;10.41;92.03
68257;DHT22;55069;51.568;4.656;2022-12-24T04:13:59;10.42;91.82
68257;DHT22;55069;51.568;4.656;2022-12-24T04:16:25;10.42;91.97
68257;DHT22;55069;51.568;4.656;2022-12-24T04:18:50;10.40;91.98
68257;DHT22;55069;51.568;4.656;2022-12-24T04:21:16;10.45;92.20
68257;DHT22;55069;51.568;4.656;2022-12-24T04:23:42;10.40;92.57
68257;DHT22;55069;51.568;4.656;2022-12-24T04:26:09;10.37;92.72
68257;DHT22;55069;51.568;4.656;2022-12-24T04:28:35;10.40;92.76
68257;DHT22;55069;51.568;4.656;2022-12-24T04:31:04;10.35;92.77
68257;DHT22;55069;51.568;4.656;2022-12-24T04:33:29;10.35;92.92
68257;DHT22;55069;51.568;4.656;2022-12-24T04:35:59;10.32;92.80
68257;DHT22;55069;51.568;4.656;2022-12-24T04:38:25;10.41;92.39
68257;DHT22;55069;51.568;4.656;2022-12-24T04:41:02;10.35;92.51
68257;DHT22;55069;51.568;4.656;2022-12-24T04:43:28;10.35;92.15
68257;DHT22;55069;51.568;4.656;2022-12-24T04:45:55;10.35;92.34
68257;DHT22;55069;51.568;4.656;2022-12-24T04:48:20;10.34;92.62
68257;DHT22;55069;51.568;4.656;2022-12-24T04:50:46;10.35;92.43
68257;DHT22;55069;51.568;4.656;2022-12-24T04:53:11;10.35;92.52
68257;DHT22;55069;51.568;4.656;2022-12-24T04:55:48;10.31;92.29
68257;DHT22;55069;51.568;4.656;2022-12-24T04:58:13;10.24;92.34
68257;DHT22;55069;51.568;4.656;2022-12-24T05:00:39;10.15;92.50
68257;DHT22;55069;51.568;4.656;2022-12-24T05:03:05;10.08;92.78
68257;DHT22;55069;51.568;4.656;2022-12-24T05:05:31;10.10;92.59
68257;DHT22;55069;51.568;4.656;2022-12-24T05:07:56;10.11;92.83
68257;DHT22;55069;51.568;4.656;2022-12-24T05:10:22;10.11;92.81
68257;DHT22;55069;51.568;4.656;2022-12-24T05:12:47;10.20;92.60
68257;DHT22;55069;51.568;4.656;2022-12-24T05:15:13;10.11;92.71
68257;DHT22;55069;51.568;4.656;2022-12-24T05:17:38;10.14;92.76
68257;DHT22;55069;51.568;4.656;2022-12-24T05:20:04;10.13;92.81
68257;DHT22;55069;51.568;4.656;2022-12-24T05:22:30;10.05;92.89
68257;DHT22;55069;51.568;4.656;2022-12-24T05:25:14;10.01;93.05
68257;DHT22;55069;51.568;4.656;2022-12-24T05:27:59;10.05;92.91
68257;DHT22;55069;51.568;4.656;2022-12-24T05:30:24;10.11;92.45
68257;DHT22;55069;51.568;4.656;2022-12-24T05:32:50;10.04;92.48
68257;DHT22;55069;51.568;4.656;2022-12-24T05:35:15;10.04;92.34
68257;DHT22;55069;51.568;4.656;2022-12-24T05:37:40;10.13;92.33
68257;DHT22;55069;51.568;4.656;2022-12-24T05:40:06;10.15;92.09
68257;DHT22;55069;51.568;4.656;2022-12-24T05:42:32;10.15;92.21
68257;DHT22;55069;51.568;4.656;2022-12-24T05:44:58;10.05;92.26
68257;DHT22;55069;51.568;4.656;2022-12-24T05:47:23;10.10;92.41
68257;DHT22;55069;51.568;4.656;2022-12-24T05:49:48;10.07;92.40
68257;DHT22;55069;51.568;4.656;2022-12-24T05:52:14;10.10;92.10
68257;DHT22;55069;51.568;4.656;2022-12-24T05:54:39;10.17;91.96
68257;DHT22;55069;51.568;4.656;2022-12-24T05:57:05;10.22;91.61
68257;DHT22;55069;51.568;4.656;2022-12-24T05:59:30;10.24;91.31
68257;DHT22;55069;51.568;4.656;2022-12-24T06:01:56;10.15;91.57
68257;DHT22;55069;51.568;4.656;2022-12-24T06:04:21;10.01;91.98
68257;DHT22;55069;51.568;4.656;2022-12-24T06:06:47;9.90;92.19
68257;DHT22;55069;51.568;4.656;2022-12-24T06:09:12;9.80;92.41
68257;DHT22;55069;51.568;4.656;2022-12-24T06:11:39;9.76;92.62
68257;DHT22;55069;51.568;4.656;2022-12-24T06:14:05;9.79;92.82
68257;DHT22;55069;51.568;4.656;2022-12-24T06:16:30;9.77;92.91
68257;DHT22;55069;51.568;4.656;2022-12-24T06:18:56;9.77;92.87
68257;DHT22;55069;51.568;4.656;2022-12-24T06:21:21;9.67;92.94
68257;DHT22;55069;51.568;4.656;2022-12-24T06:23:47;9.65;93.00
68257;DHT22;55069;51.568;4.656;2022-12-24T06:26:15;9.56;93.26
68257;DHT22;55069;51.568;4.656;2022-12-24T06:28:42;9.55;93.46
68257;DHT22;55069;51.568;4.656;2022-12-24T06:31:13;9.46;93.59
68257;DHT22;55069;51.568;4.656;2022-12-24T06:33:39;9.40;93.65
68257;DHT22;55069;51.568;4.656;2022-12-24T06:36:09;9.31;93.85
68257;DHT22;55069;51.568;4.656;2022-12-24T06:38:35;9.38;94.02
68257;DHT22;55069;51.568;4.656;2022-12-24T06:41:05;9.34;93.97
68257;DHT22;55069;51.568;4.656;2022-12-24T06:43:31;9.31;94.06
68257;DHT22;55069;51.568;4.656;2022-12-24T06:45:59;9.24;94.11
68257;DHT22;55069;51.568;4.656;2022-12-24T06:48:25;9.18;94.26
68257;DHT22;55069;51.568;4.656;2022-12-24T06:50:50;9.22;94.36
68257;DHT22;55069;51.568;4.656;2022-12-24T06:53:16;9.24;94.45
68257;DHT22;55069;51.568;4.656;2022-12-24T06:55:41;9.34;94.57
68257;DHT22;55069;51.568;4.656;2022-12-24T06:58:07;9.39;94.42
68257;DHT22;55069;51.568;4.656;2022-12-24T07:00:32;9.43;94.41
68257;DHT22;55069;51.568;4.656;2022-12-24T07:02:58;9.57;94.05
68257;DHT22;55069;51.568;4.656;2022-12-24T07:05:24;9.65;93.90
68257;DHT22;55069;51.568;4.656;2022-12-24T07:07:50;9.66;93.67
68257;DHT22;55069;51.568;4.656;2022-12-24T07:10:16;9.72;93.51
68257;DHT22;55069;51.568;4.656;2022-12-24T07:12:42;9.70;93.27
68257;DHT22;55069;51.568;4.656;2022-12-24T07:15:09;9.80;93.31
68257;DHT22;55069;51.568;4.656;2022-12-24T07:17:35;9.83;93.02
68257;DHT22;55069;51.568;4.656;2022-12-24T07:20:00;9.94;92.81
68257;DHT22;55069;51.568;4.656;2022-12-24T07:22:26;10.01;92.42
68257;DHT22;55069;51.568;4.656;2022-12-24T07:24:51;9.98;92.19
68257;DHT22;55069;51.568;4.656;2022-12-24T07:27:18;10.03;91.92
68257;DHT22;55069;51.568;4.656;2022-12-24T07:29:44;10.00;92.07
68257;DHT22;55069;51.568;4.656;2022-12-24T07:32:09;10.01;92.12
68257;DHT22;55069;51.568;4.656;2022-12-24T07:34:35;10.00;91.99
68257;DHT22;55069;51.568;4.656;2022-12-24T07:37:01;10.07;91.79
68257;DHT22;55069;51.568;4.656;2022-12-24T07:39:26;10.07;91.69
68257;DHT22;55069;51.568;4.656;2022-12-24T07:41:52;10.05;91.66
68257;DHT22;55069;51.568;4.656;2022-12-24T07:44:18;10.04;91.76
68257;DHT22;55069;51.568;4.656;2022-12-24T07:46:43;10.05;91.74
68257;DHT22;55069;51.568;4.656;2022-12-24T07:49:09;10.04;91.86
68257;DHT22;55069;51.568;4.656;2022-12-24T07:51:35;10.07;91.92
68257;DHT22;55069;51.568;4.656;2022-12-24T07:54:02;10.10;91.79
68257;DHT22;55069;51.568;4.656;2022-12-24T07:56:30;10.14;91.52
68257;DHT22;55069;51.568;4.656;2022-12-24T07:58:55;10.20;91.42
68257;DHT22;55069;51.568;4.656;2022-12-24T08:01:21;10.28;91.08
68257;DHT22;55069;51.568;4.656;2022-12-24T08:03:46;10.31;91.20
68257;DHT22;55069;51.568;4.656;2022-12-24T08:06:12;10.34;91.26
68257;DHT22;55069;51.568;4.656;2022-12-24T08:08:37;10.35;91.14
68257;DHT22;55069;51.568;4.656;2022-12-24T08:11:05;10.34;91.20
68257;DHT22;55069;51.568;4.656;2022-12-24T08:13:31;10.31;91.27
68257;DHT22;55069;51.568;4.656;2022-12-24T08:15:57;10.31;91.45
68257;DHT22;55069;51.568;4.656;2022-12-24T08:18:22;10.27;91.59
68257;DHT22;55069;51.568;4.656;2022-12-24T08:20:48;10.34;91.39
68257;DHT22;55069;51.568;4.656;2022-12-24T08:23:13;10.35;91.39
68257;DHT22;55069;51.568;4.656;2022-12-24T08:25:47;10.28;91.55
68257;DHT22;55069;51.568;4.656;2022-12-24T08:28:14;10.22;91.72
68257;DHT22;55069;51.568;4.656;2022-12-24T08:30:39;10.28;91.57
68257;DHT22;55069;51.568;4.656;2022-12-24T08:33:05;10.31;91.63
68257;DHT22;55069;51.568;4.656;2022-12-24T08:35:30;10.35;91.60
68257;DHT22;55069;51.568;4.656;2022-12-24T08:37:56;10.28;91.61
68257;DHT22;55069;51.568;4.656;2022-12-24T08:40:22;10.18;91.73
68257;DHT22;55069;51.568;4.656;2022-12-24T08:42:47;10.14;91.86
68257;DHT22;55069;51.568;4.656;2022-12-24T08:45:13;10.15;92.07
68257;DHT22;55069;51.568;4.656;2022-12-24T08:47:39;10.13;92.16
68257;DHT22;55069;51.568;4.656;2022-12-24T08:50:05;10.08;92.24
68257;DHT22;55069;51.568;4.656;2022-12-24T08:52:31;10.01;92.45
68257;DHT22;55069;51.568;4.656;2022-12-24T08:54:57;10.05;92.35
68257;DHT22;55069;51.568;4.656;2022-12-24T08:57:22;10.14;92.36
68257;DHT22;55069;51.568;4.656;2022-12-24T08:59:48;10.08;92.20
68257;DHT22;55069;51.568;4.656;2022-12-24T09:02:14;10.15;92.00
68257;DHT22;55069;51.568;4.656;2022-12-24T09:04:39;10.15;91.98
68257;DHT22;55069;51.568;4.656;2022-12-24T09:07:06;10.15;91.96
68257;DHT22;55069;51.568;4.656;2022-12-24T09:09:31;10.30;91.53
68257;DHT22;55069;51.568;4.656;2022-12-24T09:11:57;10.34;91.34
68257;DHT22;55069;51.568;4.656;2022-12-24T09:14:22;10.34;91.11
68257;DHT22;55069;51.568;4.656;2022-12-24T09:16:48;10.37;91.03
68257;DHT22;55069;51.568;4.656;2022-12-24T09:19:13;10.34;91.12
68257;DHT22;55069;51.568;4.656;2022-12-24T09:21:39;10.40;91.13
68257;DHT22;55069;51.568;4.656;2022-12-24T09:24:04;10.34;91.25
68257;DHT22;55069;51.568;4.656;2022-12-24T09:26:30;10.38;91.33
68257;DHT22;55069;51.568;4.656;2022-12-24T09:28:57;10.35;91.42
68257;DHT22;55069;51.568;4.656;2022-12-24T09:31:22;10.38;91.37
68257;DHT22;55069;51.568;4.656;2022-12-24T09:33:49;10.41;91.32
68257;DHT22;55069;51.568;4.656;2022-12-24T09:36:15;10.45;91.33
68257;DHT22;55069;51.568;4.656;2022-12-24T09:38:41;10.49;91.08
68257;DHT22;55069;51.568;4.656;2022-12-24T09:43:37;10.51;90.85
68257;DHT22;55069;51.568;4.656;2022-12-24T09:48:30;10.56;90.71
68257;DHT22;55069;51.568;4.656;2022-12-24T09:51:04;10.58;90.48
68257;DHT22;55069;51.568;4.656;2022-12-24T09:53:53;10.66;90.31
68257;DHT22;55069;51.568;4.656;2022-12-24T09:56:32;10.73;89.66
68257;DHT22;55069;51.568;4.656;2022-12-24T09:59:00;10.79;89.59
68257;DHT22;55069;51.568;4.656;2022-12-24T10:01:29;10.92;88.66
68257;DHT22;55069;51.568;4.656;2022-12-24T10:04:03;11.06;88.57
68257;DHT22;55069;51.568;4.656;2022-12-24T10:09:18;11.00;88.34
68257;DHT22;55069;51.568;4.656;2022-12-24T10:12:08;10.93;88.51
68257;DHT22;55069;51.568;4.656;2022-12-24T10:17:44;10.97;88.60
68257;DHT22;55069;51.568;4.656;2022-12-24T10:23:12;11.06;87.85
68257;DHT22;55069;51.568;4.656;2022-12-24T10:26:12;10.97;88.04
68257;DHT22;55069;51.568;4.656;2022-12-24T10:29:00;10.92;88.32
68257;DHT22;55069;51.568;4.656;2022-12-24T10:31:35;10.95;88.46
68257;DHT22;55069;51.568;4.656;2022-12-24T10:34:11;10.96;88.43
68257;DHT22;55069;51.568;4.656;2022-12-24T10:36:38;11.00;88.69
68257;DHT22;55069;51.568;4.656;2022-12-24T10:39:08;11.07;88.29
68257;DHT22;55069;51.568;4.656;2022-12-24T10:41:36;11.01;88.02
68257;DHT22;55069;51.568;4.656;2022-12-24T10:44:03;11.03;87.97
68257;DHT22;55069;51.568;4.656;2022-12-24T10:46:36;11.14;88.28
68257;DHT22;55069;51.568;4.656;2022-12-24T10:49:11;11.17;87.78
68257;DHT22;55069;51.568;4.656;2022-12-24T10:52:10;11.23;87.36
68257;DHT22;55069;51.568;4.656;2022-12-24T10:55:41;11.27;87.48
68257;DHT22;55069;51.568;4.656;2022-12-24T10:57:44;11.13;87.45
68257;DHT22;55069;51.568;4.656;2022-12-24T11:00:21;11.10;87.55
68257;DHT22;55069;51.568;4.656;2022-12-24T11:02:48;11.13;87.65
68257;DHT22;55069;51.568;4.656;2022-12-24T11:05:29;11.17;87.56
68257;DHT22;55069;51.568;4.656;2022-12-24T11:08:04;11.14;87.04
68257;DHT22;55069;51.568;4.656;2022-12-24T11:10:30;11.17;86.80
68257;DHT22;55069;51.568;4.656;2022-12-24T11:12:57;11.23;86.65
68257;DHT22;55069;51.568;4.656;2022-12-24T11:15:28;11.23;86.82
68257;DHT22;55069;51.568;4.656;2022-12-24T11:17:58;11.24;86.42
68257;DHT22;55069;51.568;4.656;2022-12-24T11:20:26;11.27;86.75
68257;DHT22;55069;51.568;4.656;2022-12-24T11:22:53;11.24;86.44
68257;DHT22;55069;51.568;4.656;2022-12-24T11:25:21;11.28;87.08
68257;DHT22;55069;51.568;4.656;2022-12-24T11:27:49;11.30;87.13
68257;DHT22;55069;51.568;4.656;2022-12-24T11:32:41;11.24;86.99
68257;DHT22;55069;51.568;4.656;2022-12-24T11:35:15;11.16;86.94
68257;DHT22;55069;51.568;4.656;2022-12-24T11:37:40;11.14;87.65
68257;DHT22;55069;51.568;4.656;2022-12-24T11:40:18;11.20;87.40
68257;DHT22;55069;51.568;4.656;2022-12-24T11:42:44;11.26;86.60
68257;DHT22;55069;51.568;4.656;2022-12-24T11:45:21;11.28;86.77
68257;DHT22;55069;51.568;4.656;2022-12-24T11:47:47;11.27;86.62
68257;DHT22;55069;51.568;4.656;2022-12-24T11:53:12;11.30;87.07
68257;DHT22;55069;51.568;4.656;2022-12-24T11:55:55;11.24;86.82
68257;DHT22;55069;51.568;4.656;2022-12-24T12:01:46;11.31;86.72
68257;DHT22;55069;51.568;4.656;2022-12-24T12:04:31;11.30;86.49
68257;DHT22;55069;51.568;4.656;2022-12-24T12:07:02;11.24;85.88
68257;DHT22;55069;51.568;4.656;2022-12-24T12:09:48;11.17;86.24
68257;DHT22;55069;51.568;4.656;2022-12-24T12:12:21;11.13;86.35
68257;DHT22;55069;51.568;4.656;2022-12-24T12:14:52;11.17;86.55
68257;DHT22;55069;51.568;4.656;2022-12-24T12:20:49;11.17;86.45
68257;DHT22;55069;51.568;4.656;2022-12-24T12:23:31;11.16;86.37
68257;DHT22;55069;51.568;4.656;2022-12-24T12:26:00;11.14;86.22
68257;DHT22;55069;51.568;4.656;2022-12-24T12:31:43;11.16;85.91
68257;DHT22;55069;51.568;4.656;2022-12-24T12:34:11;11.21;85.76
68257;DHT22;55069;51.568;4.656;2022-12-24T12:37:08;11.27;85.95
68257;DHT22;55069;51.568;4.656;2022-12-24T12:39:35;11.37;85.72
68257;DHT22;55069;51.568;4.656;2022-12-24T12:47:53;11.24;86.03
68257;DHT22;55069;51.568;4.656;2022-12-24T12:50:37;11.18;86.55
68257;DHT22;55069;51.568;4.656;2022-12-24T12:53:19;11.17;86.52
68257;DHT22;55069;51.568;4.656;2022-12-24T12:55:55;11.11;86.98
68257;DHT22;55069;51.568;4.656;2022-12-24T12:58:33;11.06;87.23
68257;DHT22;55069;51.568;4.656;2022-12-24T13:01:14;11.11;86.71
68257;DHT22;55069;51.568;4.656;2022-12-24T13:04:04;11.17;86.55
68257;DHT22;55069;51.568;4.656;2022-12-24T13:09:46;11.09;86.87
68257;DHT22;55069;51.568;4.656;2022-12-24T13:18:00;10.82;87.95
68257;DHT22;55069;51.568;4.656;2022-12-24T13:20:30;10.72;88.33
68257;DHT22;55069;51.568;4.656;2022-12-24T13:22:58;10.75;88.45
68257;DHT22;55069;51.568;4.656;2022-12-24T13:28:26;10.75;88.22
68257;DHT22;55069;51.568;4.656;2022-12-24T13:38:39;10.88;87.47
68257;DHT22;55069;51.568;4.656;2022-12-24T13:44:18;10.86;87.49
68257;DHT22;55069;51.568;4.656;2022-12-24T13:47:15;10.83;87.65
68257;DHT22;55069;51.568;4.656;2022-12-24T13:49:45;10.83;88.15
68257;DHT22;55069;51.568;4.656;2022-12-24T13:57:30;10.89;87.73
68257;DHT22;55069;51.568;4.656;2022-12-24T14:02:45;10.90;87.66
68257;DHT22;55069;51.568;4.656;2022-12-24T14:05:30;10.93;87.84
68257;DHT22;55069;51.568;4.656;2022-12-24T14:07:57;10.88;87.81
68257;DHT22;55069;51.568;4.656;2022-12-24T14:10:30;10.86;87.50
68257;DHT22;55069;51.568;4.656;2022-12-24T14:12:58;10.84;87.10
68257;DHT22;55069;51.568;4.656;2022-12-24T14:16:03;10.77;87.27
68257;DHT22;55069;51.568;4.656;2022-12-24T14:18:31;10.75;87.73
68257;DHT22;55069;51.568;4.656;2022-12-24T14:20:59;10.73;87.40
68257;DHT22;55069;51.568;4.656;2022-12-24T14:23:48;10.63;88.05
68257;DHT22;55069;51.568;4.656;2022-12-24T14:26:18;10.55;88.31
68257;DHT22;55069;51.568;4.656;2022-12-24T14:28:51;10.49;88.31
68257;DHT22;55069;51.568;4.656;2022-12-24T14:31:18;10.45;88.53
68257;DHT22;55069;51.568;4.656;2022-12-24T14:33:44;10.41;88.69
68257;DHT22;55069;51.568;4.656;2022-12-24T14:36:10;10.32;89.00
68257;DHT22;55069;51.568;4.656;2022-12-24T14:38:40;10.24;89.31
68257;DHT22;55069;51.568;4.656;2022-12-24T14:41:43;10.11;89.54
68257;DHT22;55069;51.568;4.656;2022-12-24T14:44:38;10.07;90.20
68257;DHT22;55069;51.568;4.656;2022-12-24T14:47:20;10.03;90.32
68257;DHT22;55069;51.568;4.656;2022-12-24T14:52:45;9.84;91.08
68257;DHT22;55069;51.568;4.656;2022-12-24T14:55:39;9.77;91.44
68257;DHT22;55069;51.568;4.656;2022-12-24T14:58:25;9.63;91.83
68257;DHT22;55069;51.568;4.656;2022-12-24T15:00:56;9.65;92.21
68257;DHT22;55069;51.568;4.656;2022-12-24T15:03:25;9.56;92.37
68257;DHT22;55069;51.568;4.656;2022-12-24T15:06:00;9.56;92.78
68257;DHT22;55069;51.568;4.656;2022-12-24T15:08:30;9.65;92.99
68257;DHT22;55069;51.568;4.656;2022-12-24T15:11:00;9.70;92.90
68257;DHT22;55069;51.568;4.656;2022-12-24T15:13:30;9.67;92.67
68257;DHT22;55069;51.568;4.656;2022-12-24T15:15:59;9.57;92.67
68257;DHT22;55069;51.568;4.656;2022-12-24T15:18:27;9.40;92.63
68257;DHT22;55069;51.568;4.656;2022-12-24T15:20:56;9.32;92.79
68257;DHT22;55069;51.568;4.656;2022-12-24T15:23:29;9.25;92.93
68257;DHT22;55069;51.568;4.656;2022-12-24T15:28:37;9.10;93.20
68257;DHT22;55069;51.568;4.656;2022-12-24T15:31:07;9.03;93.53
68257;DHT22;55069;51.568;4.656;2022-12-24T15:33:35;9.00;93.80
68257;DHT22;55069;51.568;4.656;2022-12-24T15:36:01;8.98;94.16
68257;DHT22;55069;51.568;4.656;2022-12-24T15:38:32;9.08;94.32
68257;DHT22;55069;51.568;4.656;2022-12-24T15:41:01;9.11;94.45
68257;DHT22;55069;51.568;4.656;2022-12-24T15:43:29;9.17;94.50
68257;DHT22;55069;51.568;4.656;2022-12-24T15:45:56;9.24;94.56
68257;DHT22;55069;51.568;4.656;2022-12-24T15:48:24;9.17;94.37
68257;DHT22;55069;51.568;4.656;2022-12-24T15:50:58;9.08;94.22
68257;DHT22;55069;51.568;4.656;2022-12-24T15:58:35;8.87;94.56
68257;DHT22;55069;51.568;4.656;2022-12-24T16:03:33;8.92;94.91
68257;DHT22;55069;51.568;4.656;2022-12-24T16:06:01;8.94;94.92
68257;DHT22;55069;51.568;4.656;2022-12-24T16:08:29;8.87;94.86
68257;DHT22;55069;51.568;4.656;2022-12-24T16:11:12;8.81;94.87
68257;DHT22;55069;51.568;4.656;2022-12-24T16:16:18;8.73;94.93
68257;DHT22;55069;51.568;4.656;2022-12-24T16:18:51;8.69;95.00
68257;DHT22;55069;51.568;4.656;2022-12-24T16:21:25;8.66;95.06
68257;DHT22;55069;51.568;4.656;2022-12-24T16:23:54;8.63;95.12
68257;DHT22;55069;51.568;4.656;2022-12-24T16:26:21;8.63;95.24
68257;DHT22;55069;51.568;4.656;2022-12-24T16:28:47;8.63;95.36
68257;DHT22;55069;51.568;4.656;2022-12-24T16:31:28;8.54;95.41
68257;DHT22;55069;51.568;4.656;2022-12-24T16:33:57;8.52;95.33
68257;DHT22;55069;51.568;4.656;2022-12-24T16:36:23;8.46;95.35
68257;DHT22;55069;51.568;4.656;2022-12-24T16:38:48;8.42;95.48
68257;DHT22;55069;51.568;4.656;2022-12-24T16:41:32;8.36;95.49
68257;DHT22;55069;51.568;4.656;2022-12-24T16:44:18;8.31;95.57
68257;DHT22;55069;51.568;4.656;2022-12-24T16:46:43;8.26;95.62
68257;DHT22;55069;51.568;4.656;2022-12-24T16:49:19;8.22;95.73
68257;DHT22;55069;51.568;4.656;2022-12-24T16:51:45;8.20;95.79
68257;DHT22;55069;51.568;4.656;2022-12-24T16:54:12;8.18;95.84
68257;DHT22;55069;51.568;4.656;2022-12-24T16:56:39;8.16;95.89
68257;DHT22;55069;51.568;4.656;2022-12-24T16:59:05;8.14;96.00
68257;DHT22;55069;51.568;4.656;2022-12-24T17:01:30;8.11;96.07
68257;DHT22;55069;51.568;4.656;2022-12-24T17:03:56;8.05;96.12
68257;DHT22;55069;51.568;4.656;2022-12-24T17:06:21;8.05;96.09
68257;DHT22;55069;51.568;4.656;2022-12-24T17:08:47;8.01;96.20
68257;DHT22;55069;51.568;4.656;2022-12-24T17:11:13;7.99;96.23
68257;DHT22;55069;51.568;4.656;2022-12-24T17:13:39;8.02;96.29
68257;DHT22;55069;51.568;4.656;2022-12-24T17:16:05;8.06;96.45
68257;DHT22;55069;51.568;4.656;2022-12-24T17:18:31;8.09;96.51
68257;DHT22;55069;51.568;4.656;2022-12-24T17:21:00;8.15;96.65
68257;DHT22;55069;51.568;4.656;2022-12-24T17:23:26;8.18;96.67
68257;DHT22;55069;51.568;4.656;2022-12-24T17:25:52;8.16;96.64
68257;DHT22;55069;51.568;4.656;2022-12-24T17:28:18;8.14;96.61
68257;DHT22;55069;51.568;4.656;2022-12-24T17:30:43;8.12;96.60
68257;DHT22;55069;51.568;4.656;2022-12-24T17:33:09;8.14;96.61